Time;durP1;ratioP1;P1;durP2;ratioP2;P2;SDS_P1;SDS_P2;PMS_P1;PMS_P2;Temp;Humidity;BMP_temperature;BMP_pressure;BME280_temperature;BME280_humidity;BME280_pressure;Samples;Min_cycle;Max_cycle;Signal;HPM_P1;HPM_P2
2023/06/24 00:02:46;;;;;;;11.80;6.90;;;;;;;21.34;60.24;100781.03;4872346;28;20050;-86
2023/06/24 00:05:26;;;;;;;18.00;6.40;;;;;;;21.39;60.14;100791.31;4861758;28;20494;-86
2023/06/24 00:08:48;;;;;;;9.68;6.53;;;;;;;21.18;60.54;100792.81;4877126;28;20048;-87
2023/06/24 00:12:00;;;;;;;10.63;7.18;;;;;;;21.21;60.56;100792.44;4900278;28;20515;-87
2023/06/24 00:15:00;;;;;;;11.70;7.10;;;;;;;21.34;60.00;100791.00;4930621;28;20049;-85
2023/06/24 00:18:24;;;;;;;13.30;7.28;;;;;;;21.14;60.81;100793.34;4918513;28;20109;-86
2023/06/24 00:21:58;;;;;;;14.77;7.28;;;;;;;21.27;60.08;100792.75;4862470;28;20126;-86
2023/06/24 00:24:52;;;;;;;12.27;6.97;;;;;;;21.21;60.14;100795.16;4875706;28;20058;-86
2023/06/24 00:31:54;;;;;;;15.18;7.93;;;;;;;20.98;60.84;100780.81;4857693;28;20061;-86
2023/06/24 00:35:24;;;;;;;12.02;7.28;;;;;;;21.10;60.41;100782.09;4840040;28;20072;-86
2023/06/24 00:38:48;;;;;;;13.85;7.63;;;;;;;20.92;60.99;100771.59;4854540;28;20118;-87
2023/06/24 00:41:53;;;;;;;13.88;6.57;;;;;;;20.99;60.75;100777.97;4841740;28;20058;-87
2023/06/24 00:44:56;;;;;;;13.50;7.28;;;;;;;21.05;60.37;100768.28;4840142;28;20057;-87
2023/06/24 00:48:03;;;;;;;14.35;7.28;;;;;;;20.96;60.82;100777.47;4911824;28;20064;-87
2023/06/24 00:51:50;;;;;;;13.98;7.03;;;;;;;20.83;61.07;100777.22;4886627;28;20058;-86
2023/06/24 00:55:45;;;;;;;13.15;7.03;;;;;;;20.72;61.22;100778.50;4833966;28;20055;-86
2023/06/24 00:59:11;;;;;;;14.43;7.32;;;;;;;20.79;61.41;100779.47;4888345;28;20143;-86
2023/06/24 01:02:21;;;;;;;14.02;7.72;;;;;;;20.69;61.41;100776.16;4866640;28;20053;-86
2023/06/24 01:05:36;;;;;;;12.27;6.88;;;;;;;20.64;62.09;100781.25;4892875;28;20051;-86
2023/06/24 01:08:50;;;;;;;13.70;7.35;;;;;;;20.73;61.24;100774.75;4824663;28;20076;-86
2023/06/24 01:12:23;;;;;;;12.63;7.70;;;;;;;20.58;61.78;100786.34;4883245;28;20051;-87
2023/06/24 01:20:05;;;;;;;16.55;7.28;;;;;;;20.50;61.77;100791.72;4794063;28;20112;-87
2023/06/24 01:23:52;;;;;;;12.05;6.70;;;;;;;20.45;61.74;100786.03;4828788;28;20058;-86
2023/06/24 01:27:01;;;;;;;13.40;7.15;;;;;;;20.43;61.93;100788.09;4869873;28;20055;-86
2023/06/24 01:30:52;;;;;;;13.95;7.78;;;;;;;20.38;61.97;100795.88;4882883;28;20060;-86
2023/06/24 01:34:25;;;;;;;14.27;6.68;;;;;;;20.32;62.02;100788.47;4920650;28;20488;-87
2023/06/24 01:37:52;;;;;;;12.43;7.25;;;;;;;20.34;61.86;100786.44;4914155;28;20057;-87
2023/06/24 01:40:43;;;;;;;10.80;7.03;;;;;;;20.41;61.52;100787.41;4882631;28;20285;-87
2023/06/24 01:44:25;;;;;;;12.48;7.30;;;;;;;20.23;62.28;100786.84;4929718;28;21099;-86
2023/06/24 01:47:37;;;;;;;11.45;6.85;;;;;;;20.34;61.71;100783.75;4882847;28;20171;-86
2023/06/24 01:51:22;;;;;;;11.70;7.15;;;;;;;20.28;61.70;100773.66;4899126;28;20053;-86
2023/06/24 01:54:15;;;;;;;14.27;7.63;;;;;;;20.34;61.58;100779.19;4844873;28;20102;-87
2023/06/24 01:58:19;;;;;;;11.18;7.00;;;;;;;20.19;61.79;100783.63;4870008;28;20353;-87
2023/06/24 02:01:37;;;;;;;13.73;6.75;;;;;;;20.29;61.44;100789.66;4896673;28;20104;-87
2023/06/24 02:04:52;;;;;;;18.77;6.80;;;;;;;20.32;61.34;100783.91;4881510;28;20052;-87
2023/06/24 02:07:53;;;;;;;13.05;7.38;;;;;;;20.24;61.23;100777.72;4873015;28;20054;-87
2023/06/24 02:11:00;;;;;;;16.08;7.95;;;;;;;20.26;61.32;100786.47;4868132;28;20055;-87
2023/06/24 02:14:51;;;;;;;13.20;7.05;;;;;;;20.21;61.33;100783.47;4856437;28;20088;-87
2023/06/24 02:18:04;;;;;;;12.65;7.47;;;;;;;20.20;61.15;100779.06;4875816;28;20039;-87
2023/06/24 02:21:47;;;;;;;14.27;7.10;;;;;;;20.02;61.77;100780.16;4851693;28;20060;-87
2023/06/24 02:24:51;;;;;;;14.07;7.35;;;;;;;20.13;61.43;100778.94;4842066;28;20444;-86
2023/06/24 02:28:02;;;;;;;13.38;7.45;;;;;;;20.04;61.79;100786.22;4859232;28;20146;-86
2023/06/24 02:31:10;;;;;;;12.02;6.82;;;;;;;20.14;61.33;100772.53;4882864;28;20051;-87
2023/06/24 02:34:40;;;;;;;12.73;7.28;;;;;;;20.09;61.34;100783.84;4806693;28;20063;-87
2023/06/24 02:37:58;;;;;;;12.70;6.65;;;;;;;19.85;62.24;100774.00;4786744;29;20051;-87
2023/06/24 02:41:09;;;;;;;13.55;7.28;;;;;;;19.92;61.90;100772.28;4758660;29;20057;-87
2023/06/24 02:44:28;;;;;;;12.15;6.88;;;;;;;19.93;62.13;100768.56;4736359;29;20067;-85
2023/06/24 02:47:33;;;;;;;17.55;8.15;;;;;;;19.95;61.87;100771.09;4788885;29;20272;-87
2023/06/24 02:51:10;;;;;;;12.52;7.03;;;;;;;19.80;61.93;100773.66;4753479;29;20069;-87
2023/06/24 02:53:54;;;;;;;14.40;7.65;;;;;;;19.94;61.45;100780.19;4783904;29;20045;-87
2023/06/24 02:57:05;;;;;;;12.80;7.00;;;;;;;19.86;61.71;100777.53;4733477;29;20070;-86
2023/06/24 03:01:01;;;;;;;11.90;7.20;;;;;;;19.71;62.09;100783.63;4768813;29;20061;-87
2023/06/24 03:04:10;;;;;;;12.68;7.35;;;;;;;19.86;61.69;100781.06;4767429;29;20494;-87
2023/06/24 03:07:40;;;;;;;12.13;6.50;;;;;;;19.75;61.89;100778.75;4766393;29;20091;-87
2023/06/24 03:10:51;;;;;;;14.20;7.50;;;;;;;19.77;61.74;100783.94;4799035;29;20072;-86
2023/06/24 03:13:58;;;;;;;11.73;7.30;;;;;;;19.77;61.49;100784.81;4812171;29;20045;-86
2023/06/24 03:17:15;;;;;;;16.90;7.20;;;;;;;19.64;61.77;100787.13;4776963;29;20055;-85
2023/06/24 03:20:24;;;;;;;10.73;7.03;;;;;;;19.72;61.57;100798.78;4812565;28;20079;-85
2023/06/24 03:23:27;;;;;;;15.23;7.68;;;;;;;19.68;61.35;100799.31;4866274;28;20160;-86
2023/06/24 03:26:57;;;;;;;19.35;8.23;;;;;;;19.52;61.46;100797.44;4830296;28;20055;-86
2023/06/24 03:30:05;;;;;;;13.55;7.75;;;;;;;19.46;61.51;100798.13;4856730;28;21275;-87
2023/06/24 03:34:38;;;;;;;21.42;9.23;;;;;;;19.40;61.41;100798.81;4853341;28;20055;-86
2023/06/24 03:38:33;;;;;;;13.93;7.18;;;;;;;19.51;61.76;100799.31;4928146;28;20527;-86
2023/06/24 03:43:00;;;;;;;14.35;7.25;;;;;;;19.46;61.51;100792.72;4862855;28;20055;-85
2023/06/24 03:51:05;;;;;;;;;;;;;;;;;;;;;
2023/06/24 04:08:41;;;;;;;13.23;8.15;;;;;;;21.87;54.52;100816.19;4890332;29;20100;-88
2023/06/24 04:24:54;;;;;;;12.20;7.10;;;;;;;21.25;55.81;100819.94;4722783;23;20744;-88
2023/06/24 04:27:20;;;;;;;12.48;8.18;;;;;;;21.18;56.00;100824.41;4881009;29;20063;-87
2023/06/24 04:29:47;;;;;;;14.30;8.30;;;;;;;21.13;56.45;100827.63;4873945;29;20048;-88
2023/06/24 04:32:14;;;;;;;15.95;8.07;;;;;;;21.11;56.56;100828.84;4880499;29;20067;-87
2023/06/24 04:34:41;;;;;;;16.48;7.68;;;;;;;21.10;56.12;100822.59;4849239;29;20377;-87
2023/06/24 04:37:08;;;;;;;13.50;8.15;;;;;;;21.08;56.27;100823.78;4850460;29;20055;-87
2023/06/24 04:39:35;;;;;;;13.38;8.30;;;;;;;21.02;56.51;100828.06;4851467;29;20067;-87
2023/06/24 04:42:01;;;;;;;15.90;7.72;;;;;;;21.03;56.38;100830.56;4859306;29;20101;-87
2023/06/24 04:44:28;;;;;;;15.38;8.27;;;;;;;21.02;56.40;100836.16;4864856;29;20659;-88
2023/06/24 04:46:55;;;;;;;15.05;7.28;;;;;;;21.06;56.57;100837.47;4846071;29;20131;-87
2023/06/24 04:49:22;;;;;;;14.55;8.57;;;;;;;21.08;56.57;100834.59;4883291;29;20055;-87
2023/06/24 04:51:49;;;;;;;12.77;7.93;;;;;;;21.08;57.00;100840.00;4847123;29;20045;-87
2023/06/24 04:54:15;;;;;;;13.40;8.18;;;;;;;21.09;56.79;100844.38;4885018;29;20780;-87
2023/06/24 04:56:44;;;;;;;13.65;7.45;;;;;;;21.14;56.77;100840.13;4888655;29;20603;-88
2023/06/24 04:59:11;;;;;;;14.90;7.50;;;;;;;21.14;56.58;100836.56;4864850;29;20071;-86
2023/06/24 05:01:38;;;;;;;15.15;8.05;;;;;;;21.10;56.80;100840.66;4887611;29;20497;-87
2023/06/24 05:04:05;;;;;;;14.60;8.38;;;;;;;21.10;56.97;100843.38;4874643;29;20048;-88
2023/06/24 05:06:31;;;;;;;13.48;8.00;;;;;;;21.08;57.06;100842.69;4857756;29;20514;-87
2023/06/24 05:08:58;;;;;;;12.85;8.05;;;;;;;21.03;57.46;100841.38;4847192;29;20561;-87
2023/06/24 05:11:25;;;;;;;14.15;8.02;;;;;;;21.03;57.63;100846.78;4849065;29;20041;-86
2023/06/24 05:13:52;;;;;;;14.15;7.32;;;;;;;21.03;57.96;100843.22;4860624;29;20041;-87
2023/06/24 05:16:19;;;;;;;14.65;7.40;;;;;;;20.95;57.95;100848.69;4876340;29;20078;-86
2023/06/24 05:18:46;;;;;;;15.05;8.30;;;;;;;20.94;58.17;100850.56;4860695;29;20131;-87
2023/06/24 05:21:12;;;;;;;11.80;8.02;;;;;;;20.94;58.10;100855.09;4894424;29;20460;-86
2023/06/24 05:23:39;;;;;;;13.32;7.78;;;;;;;20.91;58.69;100856.28;4857468;29;20127;-86
2023/06/24 05:26:06;;;;;;;17.17;8.55;;;;;;;20.94;58.72;100853.25;4873666;29;20048;-86
2023/06/24 05:28:33;;;;;;;12.50;7.53;;;;;;;20.95;58.45;100854.09;4891758;29;20048;-87
2023/06/24 05:31:00;;;;;;;14.98;8.38;;;;;;;20.93;58.71;100856.13;4869698;29;20040;-88
2023/06/24 05:33:27;;;;;;;12.02;8.02;;;;;;;20.95;58.75;100856.78;4847436;29;20326;-87
2023/06/24 05:35:54;;;;;;;18.15;9.30;;;;;;;20.97;58.73;100854.75;4885974;29;20048;-87
2023/06/24 05:38:20;;;;;;;12.45;8.32;;;;;;;20.97;59.23;100857.47;4859277;29;20056;-88
2023/06/24 05:40:47;;;;;;;18.63;8.07;;;;;;;21.03;59.11;100854.88;4878154;29;20130;-87
2023/06/24 05:43:14;;;;;;;15.27;8.27;;;;;;;21.06;59.02;100856.38;4872904;29;20060;-87
2023/06/24 05:45:41;;;;;;;11.07;7.10;;;;;;;21.07;59.72;100852.66;4856715;29;20072;-87
2023/06/24 05:48:07;;;;;;;16.05;8.70;;;;;;;21.06;59.46;100858.25;4895741;29;20139;-87
2023/06/24 05:50:34;;;;;;;15.23;8.93;;;;;;;21.09;59.42;100856.03;4874981;29;20600;-86
2023/06/24 05:53:01;;;;;;;15.40;8.60;;;;;;;21.10;59.45;100859.56;4843155;29;20051;-86
2023/06/24 05:55:28;;;;;;;12.90;8.27;;;;;;;21.10;59.59;100856.88;4862366;29;20052;-86
2023/06/24 05:57:55;;;;;;;13.52;7.93;;;;;;;21.12;59.26;100852.97;4878310;29;20045;-86
2023/06/24 06:00:21;;;;;;;12.15;8.23;;;;;;;21.11;59.04;100861.25;4876042;29;20053;-87
2023/06/24 06:02:48;;;;;;;14.23;8.57;;;;;;;21.03;58.90;100860.28;4880176;29;20048;-87
2023/06/24 06:05:15;;;;;;;13.77;7.88;;;;;;;21.08;59.01;100869.72;4880990;29;20100;-87
2023/06/24 06:07:43;;;;;;;16.38;8.15;;;;;;;21.18;58.99;100862.22;4891507;29;20073;-87
2023/06/24 06:10:10;;;;;;;16.85;8.18;;;;;;;21.17;59.28;100866.78;4886786;29;20045;-87
2023/06/24 06:12:37;;;;;;;15.80;8.68;;;;;;;21.29;59.15;100856.38;4874826;29;20462;-87
2023/06/24 06:15:05;;;;;;;16.90;8.63;;;;;;;21.27;59.13;100863.84;4865661;29;20048;-87
2023/06/24 06:17:32;;;;;;;15.10;9.18;;;;;;;21.28;59.21;100862.81;4863526;29;20059;-87
2023/06/24 06:20:02;;;;;;;16.73;8.65;;;;;;;21.28;59.04;100861.97;4852373;29;20052;-87
2023/06/24 06:22:28;;;;;;;14.25;8.45;;;;;;;21.22;58.90;100853.56;4885265;29;20146;-87
2023/06/24 06:24:55;;;;;;;13.98;8.75;;;;;;;21.30;59.11;100857.25;4877062;29;20045;-87
2023/06/24 06:27:22;;;;;;;15.45;8.15;;;;;;;21.40;59.22;100860.56;4886067;29;20405;-87
2023/06/24 06:29:49;;;;;;;13.93;8.48;;;;;;;21.35;58.52;100858.38;4859101;29;20493;-84
2023/06/24 06:32:15;;;;;;;13.43;8.07;;;;;;;21.44;58.62;100859.16;4869776;29;20125;-82
2023/06/24 06:34:42;;;;;;;18.63;8.93;;;;;;;21.50;58.68;100854.88;4905623;29;20099;-84
2023/06/24 06:37:09;;;;;;;12.82;8.20;;;;;;;21.46;58.57;100852.56;4861416;29;20080;-84
2023/06/24 06:39:36;;;;;;;13.98;7.93;;;;;;;21.52;58.40;100840.16;4865400;29;20084;-84
2023/06/24 06:42:02;;;;;;;16.05;8.07;;;;;;;21.53;58.09;100843.72;4861471;29;20045;-84
2023/06/24 06:44:29;;;;;;;13.30;7.85;;;;;;;21.60;57.95;100848.22;4863021;29;20062;-84
2023/06/24 06:46:56;;;;;;;13.60;8.25;;;;;;;21.63;58.54;100842.44;4889335;29;20053;-84
2023/06/24 06:49:23;;;;;;;13.38;7.63;;;;;;;21.65;58.63;100832.28;4869023;29;20132;-83
2023/06/24 06:51:51;;;;;;;14.85;7.60;;;;;;;21.70;57.89;100837.13;4859816;29;20461;-83
2023/06/24 06:54:18;;;;;;;14.52;7.72;;;;;;;21.75;57.95;100831.16;4860999;29;20053;-83
2023/06/24 06:56:45;;;;;;;19.05;7.78;;;;;;;21.79;57.77;100827.91;4887918;29;20044;-84
2023/06/24 06:59:12;;;;;;;14.52;7.15;;;;;;;21.81;57.65;100830.44;4883136;29;20049;-85
2023/06/24 07:01:38;;;;;;;17.08;8.55;;;;;;;21.85;58.18;100832.59;4884610;29;20052;-85
2023/06/24 07:04:05;;;;;;;15.35;8.68;;;;;;;21.85;58.38;100827.19;4889285;29;20095;-84
2023/06/24 07:06:32;;;;;;;15.90;7.80;;;;;;;21.86;58.58;100830.72;4898780;29;20059;-84
2023/06/24 07:08:59;;;;;;;17.30;8.85;;;;;;;21.85;58.32;100824.50;4879265;29;20052;-83
2023/06/24 07:11:26;;;;;;;15.73;8.15;;;;;;;21.86;58.29;100819.91;4875417;29;20047;-83
2023/06/24 07:13:53;;;;;;;15.32;8.10;;;;;;;21.89;58.65;100824.94;4876220;29;20587;-84
2023/06/24 07:16:20;;;;;;;17.08;8.35;;;;;;;21.93;58.10;100826.28;4861168;29;20366;-84
2023/06/24 07:18:46;;;;;;;11.05;6.80;;;;;;;21.90;57.99;100826.63;4905265;29;20064;-84
2023/06/24 07:21:13;;;;;;;18.65;8.52;;;;;;;21.94;57.94;100829.81;4895063;29;20239;-83
2023/06/24 07:23:41;;;;;;;17.42;7.78;;;;;;;21.96;58.02;100823.19;4877460;29;20480;-84
2023/06/24 07:26:08;;;;;;;13.65;7.47;;;;;;;21.98;57.78;100829.25;4879734;29;20569;-84
2023/06/24 07:28:35;;;;;;;14.65;8.45;;;;;;;21.98;57.98;100826.56;4873323;29;20052;-85
2023/06/24 07:31:02;;;;;;;13.10;7.53;;;;;;;22.04;58.53;100824.97;4875268;29;20100;-85
2023/06/24 07:33:30;;;;;;;13.45;7.60;;;;;;;22.08;58.67;100823.53;4888240;29;20049;-83
2023/06/24 07:35:57;;;;;;;18.38;8.57;;;;;;;22.13;58.55;100826.53;4881942;29;20068;-85
2023/06/24 07:38:24;;;;;;;15.23;8.27;;;;;;;22.16;58.43;100814.50;4870880;29;20160;-84
2023/06/24 07:40:50;;;;;;;15.77;8.30;;;;;;;22.16;58.43;100820.75;4889512;29;20079;-83
2023/06/24 07:43:17;;;;;;;15.40;8.27;;;;;;;22.19;58.39;100819.53;4881400;29;20131;-84
2023/06/24 07:45:44;;;;;;;14.45;8.07;;;;;;;22.24;58.41;100823.41;4877085;29;20049;-83
2023/06/24 07:48:11;;;;;;;15.70;8.05;;;;;;;22.28;58.79;100823.84;4865987;29;20409;-83
2023/06/24 07:50:38;;;;;;;19.58;8.68;;;;;;;22.31;57.91;100827.03;4880449;29;20134;-84
2023/06/24 07:53:05;;;;;;;13.60;8.25;;;;;;;22.32;58.04;100820.56;4889577;29;20484;-83
2023/06/24 07:55:32;;;;;;;12.85;7.07;;;;;;;22.31;58.12;100824.31;4875135;29;20056;-83
2023/06/24 07:57:59;;;;;;;13.38;7.53;;;;;;;22.29;58.32;100812.00;4884877;29;20132;-83
2023/06/24 08:00:26;;;;;;;15.20;8.82;;;;;;;22.35;58.19;100818.53;4872969;29;20068;-83
2023/06/24 08:02:55;;;;;;;18.83;8.52;;;;;;;22.38;58.38;100816.28;4898775;29;20512;-83
2023/06/24 08:05:22;;;;;;;13.20;7.38;;;;;;;22.39;58.05;100811.69;4871092;29;20453;-83
2023/06/24 08:07:50;;;;;;;14.85;7.93;;;;;;;22.42;57.99;100816.75;4860150;29;20052;-83
2023/06/24 08:10:17;;;;;;;14.00;8.38;;;;;;;22.43;57.64;100813.84;4874912;29;20049;-83
2023/06/24 08:12:43;;;;;;;11.40;7.05;;;;;;;22.48;58.14;100815.97;4863629;29;20064;-83
2023/06/24 08:15:10;;;;;;;13.32;7.25;;;;;;;22.52;58.43;100815.41;4888502;29;20052;-84
2023/06/24 08:17:37;;;;;;;13.27;7.22;;;;;;;22.56;58.36;100809.63;4877752;29;20041;-85
2023/06/24 08:20:04;;;;;;;16.48;8.32;;;;;;;22.61;57.88;100802.59;4893011;29;20045;-84
2023/06/24 08:22:31;;;;;;;13.60;8.25;;;;;;;22.60;57.64;100808.22;4857535;29;20041;-84
2023/06/24 08:24:58;;;;;;;12.73;7.25;;;;;;;22.62;57.89;100796.16;4897743;29;20167;-83
2023/06/24 08:27:46;;;;;;;12.05;7.55;;;;;;;22.57;57.29;100804.03;4886418;29;20076;-83
2023/06/24 08:30:50;;;;;;;12.02;7.07;;;;;;;22.60;57.58;100797.38;4865479;29;20044;-83
2023/06/24 08:33:36;;;;;;;14.90;7.07;;;;;;;22.65;56.70;100793.06;4898713;29;20123;-82
2023/06/24 08:36:03;;;;;;;11.82;6.60;;;;;;;22.71;55.91;100797.72;4891138;29;20052;-84
2023/06/24 08:38:30;;;;;;;17.98;7.00;;;;;;;22.75;56.05;100793.59;4880259;29;20040;-83
2023/06/24 08:40:56;;;;;;;11.50;6.75;;;;;;;22.80;56.18;100798.44;4893513;29;20100;-82
2023/06/24 08:43:23;;;;;;;11.85;7.35;;;;;;;22.81;56.08;100791.97;4876946;29;20048;-81
2023/06/24 08:45:50;;;;;;;11.40;7.05;;;;;;;22.83;55.22;100795.34;4880386;29;20100;-82
2023/06/24 08:48:41;;;;;;;10.48;7.00;;;;;;;22.75;55.26;100793.59;4873751;29;20494;-83
2023/06/24 08:51:09;;;;;;;12.60;7.22;;;;;;;22.89;55.65;100801.84;4892120;29;20037;-84
2023/06/24 08:53:37;;;;;;;12.80;7.25;;;;;;;22.91;55.27;100791.66;4891036;29;20052;-83
2023/06/24 08:56:04;;;;;;;11.27;6.18;;;;;;;22.94;55.07;100791.28;4879658;29;20053;-83
2023/06/24 08:58:31;;;;;;;11.77;6.75;;;;;;;22.97;54.72;100793.63;4876334;29;20048;-83
2023/06/24 09:00:57;;;;;;;12.50;6.80;;;;;;;22.98;54.22;100792.63;4878270;29;20489;-84
2023/06/24 09:03:24;;;;;;;13.02;6.68;;;;;;;23.06;53.11;100794.34;4876146;29;20049;-83
2023/06/24 09:05:51;;;;;;;10.20;5.93;;;;;;;23.03;52.82;100787.44;4872639;29;20373;-83
2023/06/24 09:08:18;;;;;;;10.63;5.88;;;;;;;23.09;52.53;100788.53;4893600;29;20492;-83
2023/06/24 09:10:45;;;;;;;10.45;6.38;;;;;;;23.10;52.22;100787.50;4886342;29;20481;-82
2023/06/24 09:13:12;;;;;;;12.40;6.40;;;;;;;23.13;52.03;100776.28;4890756;29;20120;-84
2023/06/24 09:15:39;;;;;;;13.93;7.00;;;;;;;23.14;51.77;100781.50;4877338;29;20128;-84
2023/06/24 09:18:05;;;;;;;7.07;5.30;;;;;;;23.14;50.82;100777.94;4894455;29;20733;-84
2023/06/24 09:20:39;;;;;;;9.18;4.97;;;;;;;23.13;50.67;100776.28;4875395;29;20043;-84
2023/06/24 09:23:06;;;;;;;8.45;5.93;;;;;;;23.16;50.17;100775.91;4863068;29;20052;-83
2023/06/24 09:25:33;;;;;;;8.80;5.28;;;;;;;23.17;50.12;100764.84;4861516;29;20414;-83
2023/06/24 09:28:01;;;;;;;9.73;6.43;;;;;;;23.21;50.36;100765.31;4877954;29;20048;-83
2023/06/24 09:30:28;;;;;;;10.60;6.57;;;;;;;23.24;50.44;100761.38;4892706;29;20085;-82
2023/06/24 09:32:55;;;;;;;10.38;6.15;;;;;;;23.28;49.60;100757.22;4891900;29;20071;-83
2023/06/24 09:35:24;;;;;;;12.63;5.78;;;;;;;23.28;49.83;100758.06;4883400;29;20052;-82
2023/06/24 09:37:59;;;;;;;14.02;6.35;;;;;;;23.30;49.71;100753.28;4894461;29;20414;-85
2023/06/24 09:40:25;;;;;;;9.98;6.45;;;;;;;23.31;49.99;100748.72;4893654;29;20457;-81
2023/06/24 09:42:54;;;;;;;11.43;5.80;;;;;;;23.35;49.76;100750.81;4874717;29;20052;-83
2023/06/24 09:45:23;;;;;;;12.18;6.00;;;;;;;23.37;49.61;100748.75;4860563;29;22298;-84
2023/06/24 09:47:50;;;;;;;14.80;6.38;;;;;;;23.40;49.83;100742.91;4902797;29;20489;-83
2023/06/24 09:50:16;;;;;;;11.07;6.00;;;;;;;23.46;48.93;100740.44;4861339;29;20159;-83
2023/06/24 09:52:44;;;;;;;8.02;5.78;;;;;;;23.45;48.76;100738.78;4877341;29;20045;-85
2023/06/24 09:55:15;;;;;;;8.43;5.85;;;;;;;23.45;49.35;100739.63;4882805;29;20112;-84
2023/06/24 09:57:45;;;;;;;10.00;6.10;;;;;;;23.47;49.30;100740.25;4872745;29;20572;-84
2023/06/24 10:00:17;;;;;;;12.70;6.40;;;;;;;23.51;48.56;100738.84;4864776;29;20697;-83
2023/06/24 10:02:45;;;;;;;11.32;5.80;;;;;;;23.51;49.05;100733.44;4896358;29;20112;-83
2023/06/24 10:05:13;;;;;;;10.65;6.15;;;;;;;23.50;48.59;100734.44;4871721;29;20049;-84
2023/06/24 10:07:40;;;;;;;9.88;5.88;;;;;;;23.51;48.75;100725.28;4860823;29;20052;-84
2023/06/24 10:10:08;;;;;;;10.63;6.05;;;;;;;23.54;48.72;100722.19;4877229;29;20230;-84
2023/06/24 10:12:35;;;;;;;9.35;5.65;;;;;;;23.55;49.17;100715.72;4876180;29;20036;-84
2023/06/24 10:15:03;;;;;;;11.45;6.68;;;;;;;23.58;48.54;100718.03;4860081;29;20052;-84
2023/06/24 10:17:31;;;;;;;8.65;6.15;;;;;;;23.61;48.57;100717.63;4898477;29;20057;-84
2023/06/24 10:20:03;;;;;;;13.82;6.20;;;;;;;23.63;48.31;100714.72;4863227;29;20049;-84
2023/06/24 10:22:31;;;;;;;10.90;5.85;;;;;;;23.62;47.85;100702.19;4868477;29;20056;-85
2023/06/24 10:25:02;;;;;;;10.00;6.20;;;;;;;23.64;48.06;100697.41;4891631;29;20036;-85
2023/06/24 10:27:32;;;;;;;11.00;6.28;;;;;;;23.69;48.24;100696.81;4893185;29;20051;-85
2023/06/24 10:30:03;;;;;;;10.10;6.00;;;;;;;23.67;47.42;100696.19;4861226;29;20124;-84
2023/06/24 10:32:43;;;;;;;10.40;5.75;;;;;;;23.62;46.77;100689.47;4879781;29;20112;-84
2023/06/24 10:35:30;;;;;;;8.85;5.90;;;;;;;23.62;48.14;100689.47;4889763;29;20079;-84
2023/06/24 10:37:58;;;;;;;10.02;5.60;;;;;;;23.74;47.84;100683.53;4881444;29;20139;-84
2023/06/24 10:40:42;;;;;;;10.27;6.40;;;;;;;23.68;46.51;100684.28;4895624;29;20048;-84
2023/06/24 10:43:28;;;;;;;11.75;6.60;;;;;;;23.68;46.62;100674.28;4865227;29;20048;-84
2023/06/24 10:45:57;;;;;;;8.82;5.75;;;;;;;23.77;46.87;100677.69;4877775;29;20905;-85
2023/06/24 10:48:24;;;;;;;7.53;5.32;;;;;;;23.79;47.13;100673.75;4888604;29;20103;-84
2023/06/24 10:50:51;;;;;;;9.25;5.40;;;;;;;23.82;47.39;100676.03;4871210;29;20186;-83
2023/06/24 10:53:20;;;;;;;10.02;6.13;;;;;;;23.89;47.33;100659.81;4877957;29;20045;-83
2023/06/24 10:55:47;;;;;;;9.75;5.57;;;;;;;23.94;47.11;100656.47;4891516;29;20048;-82
2023/06/24 10:58:15;;;;;;;11.38;6.53;;;;;;;24.00;47.13;100656.50;4892231;29;20079;-81
2023/06/24 11:00:46;;;;;;;10.32;5.75;;;;;;;24.04;47.10;100651.50;4875542;29;20559;-82
2023/06/24 11:03:15;;;;;;;9.65;6.60;;;;;;;24.07;47.09;100661.97;4881712;29;20119;-82
2023/06/24 11:05:43;;;;;;;9.10;6.03;;;;;;;24.09;46.67;100651.72;4874604;29;20055;-83
2023/06/24 11:08:10;;;;;;;9.23;5.13;;;;;;;24.13;46.73;100647.56;4866063;29;20043;-82
2023/06/24 11:10:46;;;;;;;8.82;5.68;;;;;;;24.08;46.04;100643.78;4887206;29;20492;-82
2023/06/24 11:13:14;;;;;;;7.32;5.65;;;;;;;24.17;46.49;100646.13;4889866;29;20072;-82
2023/06/24 11:15:42;;;;;;;7.60;4.65;;;;;;;24.15;45.83;100645.47;4879756;29;20053;-82
2023/06/24 11:18:10;;;;;;;8.55;4.88;;;;;;;24.12;45.58;100637.75;4889158;29;20045;-81
2023/06/24 11:20:40;;;;;;;9.55;5.43;;;;;;;24.16;45.40;100635.47;4885603;29;20441;-81
2023/06/24 11:23:09;;;;;;;8.55;5.53;;;;;;;24.21;45.25;100638.38;4893680;29;20783;-81
2023/06/24 11:25:43;;;;;;;7.82;5.28;;;;;;;24.21;43.71;100635.69;4896258;29;20480;-82
2023/06/24 11:28:19;;;;;;;8.38;5.93;;;;;;;24.23;42.88;100630.88;4874175;29;20070;-81
2023/06/24 11:30:49;;;;;;;9.27;5.88;;;;;;;24.32;44.00;100632.34;4876800;29;20152;-85
2023/06/24 11:33:36;;;;;;;8.80;5.25;;;;;;;24.26;43.17;100623.16;4868521;29;20050;-82
2023/06/24 11:36:09;;;;;;;9.43;5.38;;;;;;;24.30;43.00;100631.75;4894241;29;20135;-84
2023/06/24 11:38:36;;;;;;;9.98;5.05;;;;;;;24.31;43.57;100619.81;4896848;29;20052;-84
2023/06/24 11:41:03;;;;;;;10.05;5.32;;;;;;;24.34;43.80;100624.84;4865144;29;20049;-84
2023/06/24 11:43:30;;;;;;;8.48;5.72;;;;;;;24.40;43.96;100620.44;4880043;29;20048;-84
2023/06/24 11:45:57;;;;;;;8.80;5.22;;;;;;;24.40;44.08;100620.44;4891396;29;20056;-83
2023/06/24 11:48:28;;;;;;;7.45;5.20;;;;;;;24.33;42.71;100612.31;4887927;29;20048;-84
2023/06/24 11:50:55;;;;;;;10.38;5.22;;;;;;;24.33;43.77;100620.47;4889863;29;20119;-84
2023/06/24 11:53:41;;;;;;;8.57;5.55;;;;;;;24.23;43.61;100612.72;4896738;29;20488;-84
2023/06/24 11:56:08;;;;;;;8.23;5.03;;;;;;;24.33;43.88;100614.22;4868116;29;20500;-84
2023/06/24 11:58:35;;;;;;;7.50;5.07;;;;;;;24.40;43.83;100606.88;4862872;29;20109;-84
2023/06/24 12:01:02;;;;;;;13.20;5.60;;;;;;;24.43;43.66;100611.91;4894978;29;20500;-84
2023/06/24 12:03:32;;;;;;;8.43;4.57;;;;;;;24.42;43.57;100600.19;4896064;29;20127;-84
2023/06/24 12:05:59;;;;;;;8.35;5.10;;;;;;;24.50;43.78;100598.34;4873031;29;20047;-84
2023/06/24 12:08:26;;;;;;;7.43;5.15;;;;;;;24.55;43.98;100601.28;4889154;29;20478;-83
2023/06/24 12:11:02;;;;;;;10.27;5.25;;;;;;;24.62;43.47;100596.69;4877855;29;20053;-84
2023/06/24 12:13:28;;;;;;;10.45;6.15;;;;;;;24.63;43.75;100588.34;4904219;29;20052;-83
2023/06/24 12:15:55;;;;;;;6.35;4.82;;;;;;;24.65;43.53;100582.69;4860397;29;20058;-83
2023/06/24 12:18:22;;;;;;;7.78;5.05;;;;;;;24.71;43.73;100581.88;4877671;29;20040;-84
2023/06/24 12:20:49;;;;;;;7.47;5.40;;;;;;;24.79;42.78;100583.53;4866279;29;20863;-84
2023/06/24 12:23:16;;;;;;;9.13;5.63;;;;;;;24.72;42.63;100585.41;4874454;29;20136;-84
2023/06/24 12:25:42;;;;;;;7.15;4.80;;;;;;;24.72;42.63;100583.53;4896106;29;20120;-84
2023/06/24 12:28:09;;;;;;;6.72;5.00;;;;;;;24.77;42.49;100572.03;4895294;29;20040;-84
2023/06/24 12:30:36;;;;;;;8.38;5.28;;;;;;;24.76;42.44;100570.38;4894358;29;20064;-84
2023/06/24 12:33:03;;;;;;;10.93;5.30;;;;;;;24.83;42.61;100573.91;4887436;29;20055;-83
2023/06/24 12:35:30;;;;;;;9.23;4.97;;;;;;;24.83;41.84;100569.31;4894363;29;20044;-84
2023/06/24 12:37:57;;;;;;;7.60;5.18;;;;;;;24.88;42.04;100564.09;4882151;29;20121;-84
2023/06/24 12:40:23;;;;;;;8.10;5.22;;;;;;;24.91;41.69;100560.94;4894469;29;20054;-84
2023/06/24 12:42:50;;;;;;;8.05;5.15;;;;;;;24.97;42.10;100564.69;4859699;29;20050;-84
2023/06/24 12:45:17;;;;;;;9.50;4.90;;;;;;;24.99;41.78;100559.88;4874697;29;20425;-84
2023/06/24 12:47:44;;;;;;;7.45;5.22;;;;;;;25.00;41.65;100553.38;4881800;29;20045;-84
2023/06/24 12:50:11;;;;;;;10.52;5.13;;;;;;;25.02;41.63;100556.72;4866413;29;20553;-84
2023/06/24 12:52:38;;;;;;;7.20;4.90;;;;;;;24.99;41.83;100545.47;4874465;29;20048;-83
2023/06/24 12:55:06;;;;;;;6.30;4.78;;;;;;;24.98;42.11;100552.75;4873522;29;20049;-84
2023/06/24 12:57:34;;;;;;;8.45;4.97;;;;;;;24.97;42.06;100555.69;4894128;29;20044;-83
2023/06/24 13:00:05;;;;;;;9.90;5.57;;;;;;;24.97;41.85;100552.97;4896093;29;20566;-83
2023/06/24 13:02:32;;;;;;;8.95;5.07;;;;;;;24.91;41.98;100550.06;4896974;29;20044;-84
2023/06/24 13:04:59;;;;;;;9.77;6.03;;;;;;;24.90;42.00;100545.66;4869156;29;20044;-84